sensor_id;sensor_type;location;lat;lon;timestamp;pressure;altitude;pressure_sealevel;temperature;humidity
12636;BME280;6383;50.830;7.210;2023-05-08T00:00:07;101218.00;;;19.21;82.19
12636;BME280;6383;50.830;7.210;2023-05-08T00:02:36;101211.19;;;19.18;81.84
12636;BME280;6383;50.830;7.210;2023-05-08T00:05:05;101211.19;;;19.18;82.10
12636;BME280;6383;50.830;7.210;2023-05-08T00:07:34;101221.09;;;19.19;82.55
12636;BME280;6383;50.830;7.210;2023-05-08T00:10:04;101223.84;;;19.19;82.04
12636;BME280;6383;50.830;7.210;2023-05-08T00:12:34;101222.22;;;19.18;81.73
12636;BME280;6383;50.830;7.210;2023-05-08T00:15:03;101220.28;;;19.19;82.38
12636;BME280;6383;50.830;7.210;2023-05-08T00:17:33;101219.13;;;19.20;82.39
12636;BME280;6383;50.830;7.210;2023-05-08T00:20:02;101223.50;;;19.21;82.04
12636;BME280;6383;50.830;7.210;2023-05-08T00:22:30;101225.47;;;19.20;82.20
12636;BME280;6383;50.830;7.210;2023-05-08T00:24:57;101226.59;;;19.19;82.09
12636;BME280;6383;50.830;7.210;2023-05-08T00:27:25;101226.59;;;19.19;82.25
12636;BME280;6383;50.830;7.210;2023-05-08T00:29:54;101223.03;;;19.19;81.88
12636;BME280;6383;50.830;7.210;2023-05-08T00:32:23;101225.00;;;19.18;82.27
12636;BME280;6383;50.830;7.210;2023-05-08T00:34:50;101228.56;;;19.19;81.94
12636;BME280;6383;50.830;7.210;2023-05-08T00:37:19;101231.66;;;19.17;82.43
12636;BME280;6383;50.830;7.210;2023-05-08T00:39:49;101231.66;;;19.17;82.29
12636;BME280;6383;50.830;7.210;2023-05-08T00:42:18;101231.66;;;19.17;82.22
12636;BME280;6383;50.830;7.210;2023-05-08T00:44:47;101228.09;;;19.17;81.84
12636;BME280;6383;50.830;7.210;2023-05-08T00:47:16;101229.25;;;19.16;82.03
12636;BME280;6383;50.830;7.210;2023-05-08T00:49:43;101231.56;;;19.14;82.37
12636;BME280;6383;50.830;7.210;2023-05-08T00:52:11;101234.66;;;19.12;82.19
12636;BME280;6383;50.830;7.210;2023-05-08T00:54:43;101239.38;;;19.12;82.28
12636;BME280;6383;50.830;7.210;2023-05-08T00:57:13;101242.13;;;19.12;81.86
12636;BME280;6383;50.830;7.210;2023-05-08T00:59:43;101245.22;;;19.10;82.07
12636;BME280;6383;50.830;7.210;2023-05-08T01:02:12;101238.09;;;19.09;82.22
12636;BME280;6383;50.830;7.210;2023-05-08T01:04:41;101242.00;;;19.08;81.65
12636;BME280;6383;50.830;7.210;2023-05-08T01:07:09;101244.28;;;19.06;81.87
12636;BME280;6383;50.830;7.210;2023-05-08T01:09:38;101243.00;;;19.03;81.83
12636;BME280;6383;50.830;7.210;2023-05-08T01:12:28;101245.78;;;19.03;82.16
12636;BME280;6383;50.830;7.210;2023-05-08T01:15:04;101238.63;;;19.02;82.14
12636;BME280;6383;50.830;7.210;2023-05-08T01:17:43;101247.72;;;19.03;82.08
12636;BME280;6383;50.830;7.210;2023-05-08T01:20:21;101248.88;;;19.02;81.65
12636;BME280;6383;50.830;7.210;2023-05-08T01:26:07;101253.09;;;18.99;81.48
12636;BME280;6383;50.830;7.210;2023-05-08T01:28:53;101255.44;;;18.97;81.46
12636;BME280;6383;50.830;7.210;2023-05-08T01:31:38;101249.09;;;18.97;81.30
12636;BME280;6383;50.830;7.210;2023-05-08T01:34:14;101244.72;;;18.96;81.14
12636;BME280;6383;50.830;7.210;2023-05-08T01:36:50;101248.16;;;18.93;81.13
12636;BME280;6383;50.830;7.210;2023-05-08T01:39:21;101247.69;;;18.91;81.00
12636;BME280;6383;50.830;7.210;2023-05-08T01:41:56;101249.16;;;18.88;80.95
12636;BME280;6383;50.830;7.210;2023-05-08T01:44:32;101240.09;;;18.88;81.05
12636;BME280;6383;50.830;7.210;2023-05-08T01:47:05;101247.56;;;18.87;81.04
12636;BME280;6383;50.830;7.210;2023-05-08T01:49:39;101252.25;;;18.87;80.58
12636;BME280;6383;50.830;7.210;2023-05-08T01:52:14;101251.78;;;18.85;80.41
12636;BME280;6383;50.830;7.210;2023-05-08T01:54:50;101252.84;;;18.80;80.15
12636;BME280;6383;50.830;7.210;2023-05-08T01:57:23;101247.66;;;18.79;79.92
12636;BME280;6383;50.830;7.210;2023-05-08T01:59:54;101252.69;;;18.77;80.30
12636;BME280;6383;50.830;7.210;2023-05-08T02:02:23;101253.38;;;18.74;80.24
12636;BME280;6383;50.830;7.210;2023-05-08T02:04:53;101254.84;;;18.71;80.32
12636;BME280;6383;50.830;7.210;2023-05-08T02:07:23;101256.78;;;18.71;80.46
12636;BME280;6383;50.830;7.210;2023-05-08T02:09:53;101256.00;;;18.70;80.24
12636;BME280;6383;50.830;7.210;2023-05-08T02:12:24;101256.00;;;18.70;80.35
12636;BME280;6383;50.830;7.210;2023-05-08T02:14:54;101255.22;;;18.70;80.48
12636;BME280;6383;50.830;7.210;2023-05-08T02:17:22;101256.34;;;18.69;80.48
12636;BME280;6383;50.830;7.210;2023-05-08T02:19:54;101256.34;;;18.69;79.68
12636;BME280;6383;50.830;7.210;2023-05-08T02:22:23;101257.03;;;18.65;79.46
12636;BME280;6383;50.830;7.210;2023-05-08T02:24:54;101262.06;;;18.63;79.96
12636;BME280;6383;50.830;7.210;2023-05-08T02:27:25;101260.13;;;18.64;80.18
12636;BME280;6383;50.830;7.210;2023-05-08T02:29:56;101257.34;;;18.64;80.67
12636;BME280;6383;50.830;7.210;2023-05-08T02:32:28;101262.06;;;18.63;80.49
12636;BME280;6383;50.830;7.210;2023-05-08T02:34:59;101265.97;;;18.62;80.42
12636;BME280;6383;50.830;7.210;2023-05-08T02:37:29;101264.34;;;18.61;80.54
12636;BME280;6383;50.830;7.210;2023-05-08T02:40:00;101262.72;;;18.60;80.58
12636;BME280;6383;50.830;7.210;2023-05-08T02:42:31;101266.63;;;18.59;80.58
12636;BME280;6383;50.830;7.210;2023-05-08T02:44:59;101269.38;;;18.59;80.59
12636;BME280;6383;50.830;7.210;2023-05-08T02:47:31;101263.06;;;18.59;80.58
12636;BME280;6383;50.830;7.210;2023-05-08T02:50:05;101266.13;;;18.57;80.52
12636;BME280;6383;50.830;7.210;2023-05-08T02:52:42;101276.34;;;18.57;80.50
12636;BME280;6383;50.830;7.210;2023-05-08T02:55:22;101278.28;;;18.56;80.95
12636;BME280;6383;50.830;7.210;2023-05-08T02:58:01;101275.53;;;18.56;80.73
12636;BME280;6383;50.830;7.210;2023-05-08T03:00:36;101281.88;;;18.57;80.70
12636;BME280;6383;50.830;7.210;2023-05-08T03:03:09;101281.56;;;18.58;81.31
12636;BME280;6383;50.830;7.210;2023-05-08T03:05:43;101278.81;;;18.58;80.75
12636;BME280;6383;50.830;7.210;2023-05-08T03:08:18;101271.97;;;18.56;80.60
12636;BME280;6383;50.830;7.210;2023-05-08T03:10:50;101274.72;;;18.56;80.90
12636;BME280;6383;50.830;7.210;2023-05-08T03:13:20;101278.81;;;18.58;81.01
12636;BME280;6383;50.830;7.210;2023-05-08T03:15:53;101273.59;;;18.57;80.61
12636;BME280;6383;50.830;7.210;2023-05-08T03:18:24;101278.81;;;18.58;80.64
12636;BME280;6383;50.830;7.210;2023-05-08T03:20:58;101284.63;;;18.57;80.42
12636;BME280;6383;50.830;7.210;2023-05-08T03:23:28;101279.09;;;18.57;80.47
12636;BME280;6383;50.830;7.210;2023-05-08T03:26:00;101281.41;;;18.55;80.42
12636;BME280;6383;50.830;7.210;2023-05-08T03:28:29;101290.03;;;18.53;80.37
12636;BME280;6383;50.830;7.210;2023-05-08T03:30:59;101285.66;;;18.52;80.88
12636;BME280;6383;50.830;7.210;2023-05-08T03:33:29;101279.81;;;18.54;80.30
12636;BME280;6383;50.830;7.210;2023-05-08T03:36:00;101281.75;;;18.53;80.45
12636;BME280;6383;50.830;7.210;2023-05-08T03:38:29;101280.13;;;18.52;80.27
12636;BME280;6383;50.830;7.210;2023-05-08T03:40:58;101276.56;;;18.52;79.98
12636;BME280;6383;50.830;7.210;2023-05-08T03:43:28;101291.50;;;18.51;80.43
12636;BME280;6383;50.830;7.210;2023-05-08T03:45:59;101285.19;;;18.50;80.07
12636;BME280;6383;50.830;7.210;2023-05-08T03:48:30;101279.19;;;18.48;79.51
12636;BME280;6383;50.830;7.210;2023-05-08T03:51:02;101278.72;;;18.46;79.32
12636;BME280;6383;50.830;7.210;2023-05-08T03:53:32;101283.59;;;18.41;79.29
12636;BME280;6383;50.830;7.210;2023-05-08T03:56:01;101287.06;;;18.38;79.98
12636;BME280;6383;50.830;7.210;2023-05-08T03:58:33;101282.69;;;18.37;79.86
12636;BME280;6383;50.830;7.210;2023-05-08T04:01:07;101278.31;;;18.36;80.08
12636;BME280;6383;50.830;7.210;2023-05-08T04:03:53;101282.22;;;18.35;80.02
12636;BME280;6383;50.830;7.210;2023-05-08T04:06:28;101287.25;;;18.32;80.07
12636;BME280;6383;50.830;7.210;2023-05-08T04:09:04;101285.97;;;18.30;79.29
12636;BME280;6383;50.830;7.210;2023-05-08T04:11:41;101288.72;;;18.30;79.64
12636;BME280;6383;50.830;7.210;2023-05-08T04:14:15;101288.25;;;18.28;79.21
12636;BME280;6383;50.830;7.210;2023-05-08T04:16:48;101283.53;;;18.28;79.06
12636;BME280;6383;50.830;7.210;2023-05-08T04:19:19;101278.03;;;18.28;79.88
12636;BME280;6383;50.830;7.210;2023-05-08T04:21:55;101288.56;;;18.26;79.05
12636;BME280;6383;50.830;7.210;2023-05-08T04:24:27;101288.94;;;18.25;79.65
12636;BME280;6383;50.830;7.210;2023-05-08T04:26:57;101290.88;;;18.24;79.95
12636;BME280;6383;50.830;7.210;2023-05-08T04:29:27;101296.72;;;18.23;79.15
12636;BME280;6383;50.830;7.210;2023-05-08T04:31:56;101299.00;;;18.21;78.90
12636;BME280;6383;50.830;7.210;2023-05-08T04:34:27;101291.72;;;18.16;78.86
12636;BME280;6383;50.830;7.210;2023-05-08T04:36:58;101294.81;;;18.15;79.39
12636;BME280;6383;50.830;7.210;2023-05-08T04:39:27;101294.81;;;18.15;78.94
12636;BME280;6383;50.830;7.210;2023-05-08T04:41:56;101291.56;;;18.13;78.99
12636;BME280;6383;50.830;7.210;2023-05-08T04:44:29;101299.38;;;18.11;78.85
12636;BME280;6383;50.830;7.210;2023-05-08T04:46:58;101293.41;;;18.09;79.40
12636;BME280;6383;50.830;7.210;2023-05-08T04:49:26;101293.72;;;18.07;79.35
12636;BME280;6383;50.830;7.210;2023-05-08T04:51:55;101286.28;;;18.08;79.05
12636;BME280;6383;50.830;7.210;2023-05-08T04:54:25;101292.13;;;18.06;79.15
12636;BME280;6383;50.830;7.210;2023-05-08T04:56:53;101297.63;;;18.06;78.76
12636;BME280;6383;50.830;7.210;2023-05-08T04:59:22;101296.34;;;18.04;78.49
12636;BME280;6383;50.830;7.210;2023-05-08T05:01:51;101293.91;;;18.02;78.88
12636;BME280;6383;50.830;7.210;2023-05-08T05:04:20;101297.81;;;18.01;78.74
12636;BME280;6383;50.830;7.210;2023-05-08T05:06:49;101307.22;;;18.00;78.76
12636;BME280;6383;50.830;7.210;2023-05-08T05:09:17;101302.34;;;17.97;78.99
12636;BME280;6383;50.830;7.210;2023-05-08T05:11:46;101304.31;;;17.96;79.17
12636;BME280;6383;50.830;7.210;2023-05-08T05:14:15;101308.22;;;17.95;78.62
12636;BME280;6383;50.830;7.210;2023-05-08T05:16:43;101309.81;;;17.96;79.83
12636;BME280;6383;50.830;7.210;2023-05-08T05:19:11;101301.09;;;17.94;79.50
12636;BME280;6383;50.830;7.210;2023-05-08T05:21:38;101318.44;;;17.95;79.03
12636;BME280;6383;50.830;7.210;2023-05-08T05:24:07;101317.25;;;17.96;79.35
12636;BME280;6383;50.830;7.210;2023-05-08T05:26:36;101326.34;;;17.96;79.44
12636;BME280;6383;50.830;7.210;2023-05-08T05:29:07;101323.94;;;17.95;78.71
12636;BME280;6383;50.830;7.210;2023-05-08T05:31:36;101321.19;;;17.95;78.42
12636;BME280;6383;50.830;7.210;2023-05-08T05:34:05;101322.00;;;17.95;79.05
12636;BME280;6383;50.830;7.210;2023-05-08T05:36:35;101325.19;;;17.97;79.61
12636;BME280;6383;50.830;7.210;2023-05-08T05:39:04;101342.88;;;17.96;78.25
12636;BME280;6383;50.830;7.210;2023-05-08T05:41:31;101339.19;;;17.92;78.09
12636;BME280;6383;50.830;7.210;2023-05-08T05:43:59;101338.03;;;17.93;78.90
12636;BME280;6383;50.830;7.210;2023-05-08T05:46:29;101344.81;;;17.96;79.38
12636;BME280;6383;50.830;7.210;2023-05-08T05:48:59;101352.41;;;17.99;79.37
12636;BME280;6383;50.830;7.210;2023-05-08T05:51:28;101346.91;;;17.99;79.17
12636;BME280;6383;50.830;7.210;2023-05-08T05:53:57;101349.34;;;18.01;80.16
12636;BME280;6383;50.830;7.210;2023-05-08T05:56:26;101347.88;;;18.03;79.77
12636;BME280;6383;50.830;7.210;2023-05-08T05:58:55;101349.47;;;18.04;80.08
12636;BME280;6383;50.830;7.210;2023-05-08T06:01:24;101356.63;;;18.05;79.52
12636;BME280;6383;50.830;7.210;2023-05-08T06:03:57;101351.91;;;18.06;79.90
12636;BME280;6383;50.830;7.210;2023-05-08T06:06:26;101357.09;;;18.07;80.33
12636;BME280;6383;50.830;7.210;2023-05-08T06:08:55;101354.81;;;18.09;80.36
12636;BME280;6383;50.830;7.210;2023-05-08T06:11:23;101359.53;;;18.09;80.00
12636;BME280;6383;50.830;7.210;2023-05-08T06:13:52;101353.69;;;18.10;79.82
12636;BME280;6383;50.830;7.210;2023-05-08T06:16:21;101354.94;;;18.13;79.99
12636;BME280;6383;50.830;7.210;2023-05-08T06:18:49;101359.31;;;18.14;80.51
12636;BME280;6383;50.830;7.210;2023-05-08T06:21:20;101358.97;;;18.15;80.24
12636;BME280;6383;50.830;7.210;2023-05-08T06:23:49;101364.97;;;18.17;80.31
12636;BME280;6383;50.830;7.210;2023-05-08T06:26:19;101362.69;;;18.19;79.32
12636;BME280;6383;50.830;7.210;2023-05-08T06:28:49;101362.38;;;18.21;79.62
12636;BME280;6383;50.830;7.210;2023-05-08T06:31:18;101362.38;;;18.21;79.65
12636;BME280;6383;50.830;7.210;2023-05-08T06:33:46;101360.91;;;18.23;80.37
12636;BME280;6383;50.830;7.210;2023-05-08T06:36:15;101360.56;;;18.25;79.56
12636;BME280;6383;50.830;7.210;2023-05-08T06:38:45;101360.56;;;18.25;80.17
12636;BME280;6383;50.830;7.210;2023-05-08T06:41:14;101363.34;;;18.25;79.60
12636;BME280;6383;50.830;7.210;2023-05-08T06:43:43;101358.97;;;18.24;79.87
12636;BME280;6383;50.830;7.210;2023-05-08T06:46:12;101364.91;;;18.26;79.68
12636;BME280;6383;50.830;7.210;2023-05-08T06:48:41;101380.31;;;18.27;79.51
12636;BME280;6383;50.830;7.210;2023-05-08T06:51:11;101368.16;;;18.28;79.56
12636;BME280;6383;50.830;7.210;2023-05-08T06:53:40;101361.50;;;18.29;80.05
12636;BME280;6383;50.830;7.210;2023-05-08T06:56:10;101374.94;;;18.30;79.34
12636;BME280;6383;50.830;7.210;2023-05-08T06:58:39;101371.88;;;18.32;80.04
12636;BME280;6383;50.830;7.210;2023-05-08T07:01:08;101370.41;;;18.35;79.91
12636;BME280;6383;50.830;7.210;2023-05-08T07:03:37;101366.84;;;18.34;78.83
12636;BME280;6383;50.830;7.210;2023-05-08T07:06:06;101369.44;;;18.30;78.60
12636;BME280;6383;50.830;7.210;2023-05-08T07:08:36;101364.25;;;18.29;79.58
12636;BME280;6383;50.830;7.210;2023-05-08T07:11:05;101363.78;;;18.27;80.01
12636;BME280;6383;50.830;7.210;2023-05-08T07:13:38;101368.97;;;18.28;79.99
12636;BME280;6383;50.830;7.210;2023-05-08T07:16:08;101368.16;;;18.28;80.20
12636;BME280;6383;50.830;7.210;2023-05-08T07:18:35;101360.38;;;18.30;80.14
12636;BME280;6383;50.830;7.210;2023-05-08T07:21:05;101362.31;;;18.29;79.84
12636;BME280;6383;50.830;7.210;2023-05-08T07:23:34;101365.88;;;18.30;80.75
12636;BME280;6383;50.830;7.210;2023-05-08T07:26:02;101370.25;;;18.31;80.32
12636;BME280;6383;50.830;7.210;2023-05-08T07:28:30;101369.44;;;18.30;80.10
12636;BME280;6383;50.830;7.210;2023-05-08T07:31:04;101365.22;;;18.33;81.12
12636;BME280;6383;50.830;7.210;2023-05-08T07:33:32;101364.88;;;18.35;80.53
12636;BME280;6383;50.830;7.210;2023-05-08T07:36:00;101363.59;;;18.32;79.87
12636;BME280;6383;50.830;7.210;2023-05-08T07:38:29;101361.16;;;18.30;79.77
12636;BME280;6383;50.830;7.210;2023-05-08T07:40:58;101361.50;;;18.29;80.24
12636;BME280;6383;50.830;7.210;2023-05-08T07:43:28;101362.31;;;18.29;80.65
12636;BME280;6383;50.830;7.210;2023-05-08T07:45:57;101357.75;;;18.33;82.07
12636;BME280;6383;50.830;7.210;2023-05-08T07:48:27;101364.56;;;18.36;81.13
12636;BME280;6383;50.830;7.210;2023-05-08T07:50:55;101365.38;;;18.37;80.22
12636;BME280;6383;50.830;7.210;2023-05-08T07:53:24;101373.97;;;18.35;79.54
12636;BME280;6383;50.830;7.210;2023-05-08T07:55:53;101380.75;;;18.38;80.16
12636;BME280;6383;50.830;7.210;2023-05-08T07:58:22;101372.50;;;18.38;78.69
12636;BME280;6383;50.830;7.210;2023-05-08T08:00:51;101385.00;;;18.35;78.31
12636;BME280;6383;50.830;7.210;2023-05-08T08:03:20;101379.00;;;18.33;78.73
12636;BME280;6383;50.830;7.210;2023-05-08T08:05:50;101376.41;;;18.28;78.02
12636;BME280;6383;50.830;7.210;2023-05-08T08:08:18;101377.22;;;18.28;79.85
12636;BME280;6383;50.830;7.210;2023-05-08T08:10:46;101384.19;;;18.35;80.39
12636;BME280;6383;50.830;7.210;2023-05-08T08:13:15;101380.88;;;18.41;79.77
12636;BME280;6383;50.830;7.210;2023-05-08T08:15:44;101381.03;;;18.45;79.11
12636;BME280;6383;50.830;7.210;2023-05-08T08:18:13;101389.94;;;18.50;80.46
12636;BME280;6383;50.830;7.210;2023-05-08T08:20:42;101382.94;;;18.53;79.47
12636;BME280;6383;50.830;7.210;2023-05-08T08:23:12;101390.41;;;18.52;78.30
12636;BME280;6383;50.830;7.210;2023-05-08T08:25:41;101396.56;;;18.49;79.33
12636;BME280;6383;50.830;7.210;2023-05-08T08:28:10;101393.81;;;18.49;79.57
12636;BME280;6383;50.830;7.210;2023-05-08T08:30:37;101396.09;;;18.47;79.09
12636;BME280;6383;50.830;7.210;2023-05-08T08:33:06;101397.72;;;18.48;79.75
12636;BME280;6383;50.830;7.210;2023-05-08T08:35:35;101388.63;;;18.48;79.90
12636;BME280;6383;50.830;7.210;2023-05-08T08:38:04;101384.41;;;18.50;79.89
12636;BME280;6383;50.830;7.210;2023-05-08T08:40:38;101385.38;;;18.54;80.92
12636;BME280;6383;50.830;7.210;2023-05-08T08:43:08;101388.25;;;18.58;80.87
12636;BME280;6383;50.830;7.210;2023-05-08T08:45:37;101394.41;;;18.63;81.33
12636;BME280;6383;50.830;7.210;2023-05-08T08:48:09;101390.50;;;18.64;80.15
12636;BME280;6383;50.830;7.210;2023-05-08T08:50:41;101387.28;;;18.62;78.16
12636;BME280;6383;50.830;7.210;2023-05-08T08:53:15;101389.56;;;18.60;79.11
12636;BME280;6383;50.830;7.210;2023-05-08T08:55:49;101386.00;;;18.60;78.94
12636;BME280;6383;50.830;7.210;2023-05-08T08:58:28;101387.13;;;18.59;78.58
12636;BME280;6383;50.830;7.210;2023-05-08T09:00:59;101389.56;;;18.60;79.71
12636;BME280;6383;50.830;7.210;2023-05-08T09:03:30;101390.69;;;18.59;78.37
12636;BME280;6383;50.830;7.210;2023-05-08T09:05:59;101394.59;;;18.58;77.35
12636;BME280;6383;50.830;7.210;2023-05-08T09:08:27;101391.00;;;18.58;78.44
12636;BME280;6383;50.830;7.210;2023-05-08T09:11:00;101390.19;;;18.57;77.49
12636;BME280;6383;50.830;7.210;2023-05-08T09:13:29;101390.69;;;18.59;77.53
12636;BME280;6383;50.830;7.210;2023-05-08T09:15:58;101389.56;;;18.60;78.64
12636;BME280;6383;50.830;7.210;2023-05-08T09:18:25;101393.13;;;18.61;78.13
12636;BME280;6383;50.830;7.210;2023-05-08T09:20:55;101386.31;;;18.58;77.71
12636;BME280;6383;50.830;7.210;2023-05-08T09:23:24;101389.09;;;18.58;78.56
12636;BME280;6383;50.830;7.210;2023-05-08T09:25:51;101388.41;;;18.61;79.14
12636;BME280;6383;50.830;7.210;2023-05-08T09:28:22;101391.19;;;18.61;78.71
12636;BME280;6383;50.830;7.210;2023-05-08T09:30:52;101387.94;;;18.59;77.67
12636;BME280;6383;50.830;7.210;2023-05-08T09:33:24;101391.00;;;18.58;77.60
12636;BME280;6383;50.830;7.210;2023-05-08T09:35:54;101387.44;;;18.57;78.43
12636;BME280;6383;50.830;7.210;2023-05-08T09:38:34;101395.41;;;18.59;77.70
12636;BME280;6383;50.830;7.210;2023-05-08T09:41:07;101392.66;;;18.59;77.52
12636;BME280;6383;50.830;7.210;2023-05-08T09:43:36;101393.47;;;18.59;78.27
12636;BME280;6383;50.830;7.210;2023-05-08T09:46:22;101390.19;;;18.57;77.27
12636;BME280;6383;50.830;7.210;2023-05-08T09:48:53;101397.34;;;18.58;77.86
12636;BME280;6383;50.830;7.210;2023-05-08T09:51:22;101395.56;;;18.62;79.35
12636;BME280;6383;50.830;7.210;2023-05-08T09:53:50;101394.09;;;18.65;79.48
12636;BME280;6383;50.830;7.210;2023-05-08T09:56:31;101391.47;;;18.69;80.38
12636;BME280;6383;50.830;7.210;2023-05-08T09:59:03;101404.13;;;18.70;78.63
12636;BME280;6383;50.830;7.210;2023-05-08T10:01:34;101405.25;;;18.69;77.30
12636;BME280;6383;50.830;7.210;2023-05-08T10:04:03;101403.63;;;18.67;76.53
12636;BME280;6383;50.830;7.210;2023-05-08T10:06:33;101408.81;;;18.69;77.89
12636;BME280;6383;50.830;7.210;2023-05-08T10:09:08;101410.41;;;18.70;77.81
12636;BME280;6383;50.830;7.210;2023-05-08T10:11:38;101401.22;;;18.66;77.12
12636;BME280;6383;50.830;7.210;2023-05-08T10:14:08;101406.25;;;18.64;76.92
12636;BME280;6383;50.830;7.210;2023-05-08T10:16:41;101403.81;;;18.62;77.42
12636;BME280;6383;50.830;7.210;2023-05-08T10:19:13;101402.22;;;18.61;77.07
12636;BME280;6383;50.830;7.210;2023-05-08T10:21:45;101410.47;;;18.61;77.85
12636;BME280;6383;50.830;7.210;2023-05-08T10:24:16;101414.03;;;18.62;77.85
12636;BME280;6383;50.830;7.210;2023-05-08T10:26:54;101414.38;;;18.60;76.95
12636;BME280;6383;50.830;7.210;2023-05-08T10:29:31;101409.00;;;18.55;76.59
12636;BME280;6383;50.830;7.210;2023-05-08T10:32:01;101409.69;;;18.52;76.46
12636;BME280;6383;50.830;7.210;2023-05-08T10:34:31;101412.47;;;18.52;77.60
12636;BME280;6383;50.830;7.210;2023-05-08T10:37:00;101405.66;;;18.50;77.64
12636;BME280;6383;50.830;7.210;2023-05-08T10:39:29;101409.69;;;18.52;79.11
12636;BME280;6383;50.830;7.210;2023-05-08T10:41:59;101405.47;;;18.55;78.86
12636;BME280;6383;50.830;7.210;2023-05-08T10:44:30;101408.38;;;18.58;79.23
12636;BME280;6383;50.830;7.210;2023-05-08T10:47:02;101400.59;;;18.60;79.46
12636;BME280;6383;50.830;7.210;2023-05-08T10:49:41;101395.88;;;18.61;79.58
12636;BME280;6383;50.830;7.210;2023-05-08T10:52:15;101393.47;;;18.59;78.97
12636;BME280;6383;50.830;7.210;2023-05-08T10:54:55;101392.31;;;18.60;79.63
12636;BME280;6383;50.830;7.210;2023-05-08T10:57:29;101385.66;;;18.61;79.74
12636;BME280;6383;50.830;7.210;2023-05-08T10:59:59;101394.25;;;18.60;79.46
12636;BME280;6383;50.830;7.210;2023-05-08T11:02:29;101385.00;;;18.64;78.77
12636;BME280;6383;50.830;7.210;2023-05-08T11:05:13;101387.44;;;18.66;78.88
12636;BME280;6383;50.830;7.210;2023-05-08T11:07:53;101384.66;;;18.66;77.86
12636;BME280;6383;50.830;7.210;2023-05-08T11:10:28;101376.25;;;18.62;78.87
12636;BME280;6383;50.830;7.210;2023-05-08T11:12:58;101379.16;;;18.66;79.75
12636;BME280;6383;50.830;7.210;2023-05-08T11:15:37;101375.09;;;18.63;78.39
12636;BME280;6383;50.830;7.210;2023-05-08T11:18:08;101370.06;;;18.65;78.47
12636;BME280;6383;50.830;7.210;2023-05-08T11:20:38;101372.97;;;18.69;79.09
12636;BME280;6383;50.830;7.210;2023-05-08T11:23:20;101374.22;;;18.72;77.98
12636;BME280;6383;50.830;7.210;2023-05-08T11:25:57;101376.66;;;18.73;77.99
12636;BME280;6383;50.830;7.210;2023-05-08T11:28:27;101380.69;;;18.76;77.89
12636;BME280;6383;50.830;7.210;2023-05-08T11:31:03;101376.13;;;18.80;77.57
12636;BME280;6383;50.830;7.210;2023-05-08T11:33:32;101379.38;;;18.82;77.10
12636;BME280;6383;50.830;7.210;2023-05-08T11:36:13;101380.50;;;18.81;76.50
12636;BME280;6383;50.830;7.210;2023-05-08T11:38:43;101377.75;;;18.81;76.34
12636;BME280;6383;50.830;7.210;2023-05-08T11:41:31;101371.56;;;18.84;77.25
12636;BME280;6383;50.830;7.210;2023-05-08T11:44:18;101370.06;;;18.86;77.35
12636;BME280;6383;50.830;7.210;2023-05-08T11:46:50;101365.97;;;18.92;77.33
12636;BME280;6383;50.830;7.210;2023-05-08T11:49:22;101357.16;;;18.99;77.64
12636;BME280;6383;50.830;7.210;2023-05-08T11:51:52;101359.69;;;19.04;76.99
12636;BME280;6383;50.830;7.210;2023-05-08T11:54:25;101361.66;;;19.03;75.85
12636;BME280;6383;50.830;7.210;2023-05-08T11:56:57;101360.50;;;19.05;75.80
12636;BME280;6383;50.830;7.210;2023-05-08T11:59:26;101350.41;;;19.09;76.01
12636;BME280;6383;50.830;7.210;2023-05-08T12:01:56;101356.66;;;19.18;77.74
12636;BME280;6383;50.830;7.210;2023-05-08T12:04:25;101344.75;;;19.26;76.86
12636;BME280;6383;50.830;7.210;2023-05-08T12:06:56;101345.44;;;19.35;76.78
12636;BME280;6383;50.830;7.210;2023-05-08T12:09:26;101341.44;;;19.45;75.31
12636;BME280;6383;50.830;7.210;2023-05-08T12:11:56;101336.00;;;19.57;75.88
12636;BME280;6383;50.830;7.210;2023-05-08T12:14:25;101335.88;;;19.65;74.17
12636;BME280;6383;50.830;7.210;2023-05-08T12:16:54;101335.34;;;19.72;74.95
12636;BME280;6383;50.830;7.210;2023-05-08T12:19:25;101332.56;;;19.84;74.64
12636;BME280;6383;50.830;7.210;2023-05-08T12:21:56;101328.53;;;19.94;73.07
12636;BME280;6383;50.830;7.210;2023-05-08T12:24:26;101336.63;;;19.99;72.55
12636;BME280;6383;50.830;7.210;2023-05-08T12:26:55;101340.06;;;20.08;71.50
12636;BME280;6383;50.830;7.210;2023-05-08T12:29:24;101330.06;;;20.16;72.24
12636;BME280;6383;50.830;7.210;2023-05-08T12:31:53;101343.28;;;20.22;71.48
12636;BME280;6383;50.830;7.210;2023-05-08T12:34:22;101341.91;;;20.28;71.08
12636;BME280;6383;50.830;7.210;2023-05-08T12:37:02;101346.19;;;20.38;72.06
12636;BME280;6383;50.830;7.210;2023-05-08T12:39:34;101340.06;;;20.45;69.49
12636;BME280;6383;50.830;7.210;2023-05-08T12:42:03;101339.59;;;20.55;72.56
12636;BME280;6383;50.830;7.210;2023-05-08T12:44:31;101337.47;;;20.64;70.44
12636;BME280;6383;50.830;7.210;2023-05-08T12:47:00;101339.19;;;20.68;68.31
12636;BME280;6383;50.830;7.210;2023-05-08T12:49:30;101331.13;;;20.75;69.82
12636;BME280;6383;50.830;7.210;2023-05-08T12:52:05;101338.94;;;20.86;69.19
12636;BME280;6383;50.830;7.210;2023-05-08T12:54:35;101333.50;;;20.89;67.67
12636;BME280;6383;50.830;7.210;2023-05-08T12:57:10;101332.00;;;20.92;69.28
12636;BME280;6383;50.830;7.210;2023-05-08T12:59:40;101332.44;;;20.94;67.06
12636;BME280;6383;50.830;7.210;2023-05-08T13:02:14;101327.34;;;20.96;67.06
12636;BME280;6383;50.830;7.210;2023-05-08T13:04:43;101317.88;;;20.97;67.13
12636;BME280;6383;50.830;7.210;2023-05-08T13:07:14;101316.38;;;20.99;66.33
12636;BME280;6383;50.830;7.210;2023-05-08T13:09:56;101312.13;;;21.02;67.03
12636;BME280;6383;50.830;7.210;2023-05-08T13:12:26;101321.69;;;21.04;67.77
12636;BME280;6383;50.830;7.210;2023-05-08T13:14:55;101319.38;;;21.06;66.11
12636;BME280;6383;50.830;7.210;2023-05-08T13:17:24;101310.34;;;21.09;67.05
12636;BME280;6383;50.830;7.210;2023-05-08T13:19:53;101313.66;;;21.15;66.98
12636;BME280;6383;50.830;7.210;2023-05-08T13:22:24;101310.69;;;21.20;68.02